Time;durP1;ratioP1;P1;durP2;ratioP2;P2;SDS_P1;SDS_P2;PMS_P1;PMS_P2;Temp;Humidity;BMP_temperature;BMP_pressure;BME280_temperature;BME280_humidity;BME280_pressure;Samples;Min_cycle;Max_cycle;Signal;HPM_P1;HPM_P2
2021/05/04 00:00:14;;;;;;;2.17;1.67;;;;;;;;;;4978008;28;20480;-59
2021/05/04 00:02:40;;;;;;;2.38;1.40;;;;;;;;;;4960188;28;20034;-59
2021/05/04 00:05:06;;;;;;;1.85;1.40;;;;;;;;;;4977494;28;20063;-59
2021/05/04 00:07:31;;;;;;;2.17;1.60;;;;;;;;;;4982788;28;20081;-59
2021/05/04 00:09:56;;;;;;;1.83;1.50;;;;;;;;;;4976734;28;20038;-59
2021/05/04 00:12:22;;;;;;;1.85;1.45;;;;;;;;;;4982621;28;20042;-59
2021/05/04 00:14:47;;;;;;;2.25;1.50;;;;;;;;;;4977152;28;20265;-59
2021/05/04 00:17:13;;;;;;;2.38;1.40;;;;;;;;;;4977610;28;20032;-60
2021/05/04 00:19:39;;;;;;;3.72;1.60;;;;;;;;;;4976121;28;20559;-59
2021/05/04 00:22:05;;;;;;;4.35;1.58;;;;;;;;;;4978824;28;20512;-59
2021/05/04 00:24:31;;;;;;;2.33;1.35;;;;;;;;;;4978706;28;20035;-59
2021/05/04 00:26:56;;;;;;;1.52;1.20;;;;;;;;;;4976042;28;20476;-60
2021/05/04 00:29:22;;;;;;;1.98;1.35;;;;;;;;;;4977044;28;20027;-59
2021/05/04 00:31:47;;;;;;;1.98;1.40;;;;;;;;;;4976300;28;20484;-59
2021/05/04 00:34:13;;;;;;;1.92;1.33;;;;;;;;;;4976836;28;20062;-60
2021/05/04 00:36:38;;;;;;;1.50;1.40;;;;;;;;;;4978249;28;20839;-60
2021/05/04 00:39:04;;;;;;;2.30;1.52;;;;;;;;;;4976569;28;20046;-60
2021/05/04 00:41:29;;;;;;;1.50;1.40;;;;;;;;;;4976483;28;20038;-60
2021/05/04 00:43:55;;;;;;;2.08;1.35;;;;;;;;;;4976767;28;20059;-60
2021/05/04 00:46:20;;;;;;;2.38;1.30;;;;;;;;;;4978539;28;20066;-59
2021/05/04 00:48:46;;;;;;;2.22;1.40;;;;;;;;;;4976139;28;20039;-60
2021/05/04 00:51:11;;;;;;;1.65;1.27;;;;;;;;;;4980099;28;20046;-59
2021/05/04 00:53:37;;;;;;;1.30;1.20;;;;;;;;;;4979659;28;20440;-60
2021/05/04 00:56:02;;;;;;;1.40;1.30;;;;;;;;;;4977148;28;20037;-60
2021/05/04 00:58:28;;;;;;;2.38;1.45;;;;;;;;;;4959953;28;20908;-60
2021/05/04 01:00:53;;;;;;;1.38;1.10;;;;;;;;;;4977961;28;20039;-60
2021/05/04 01:03:19;;;;;;;1.42;1.23;;;;;;;;;;4977865;28;20035;-60
2021/05/04 01:05:44;;;;;;;2.58;1.42;;;;;;;;;;4965858;28;20362;-60
2021/05/04 01:08:10;;;;;;;1.73;1.33;;;;;;;;;;4977962;28;20042;-60
2021/05/04 01:10:35;;;;;;;1.48;1.10;;;;;;;;;;4978933;28;20493;-60
2021/05/04 01:13:01;;;;;;;2.17;1.33;;;;;;;;;;4976178;28;20076;-60
2021/05/04 01:15:28;;;;;;;1.98;1.30;;;;;;;;;;4975489;28;20086;-60
2021/05/04 01:17:53;;;;;;;1.25;1.15;;;;;;;;;;4982505;28;20031;-60
2021/05/04 01:20:19;;;;;;;1.40;1.30;;;;;;;;;;4979817;28;20504;-60
2021/05/04 01:22:44;;;;;;;1.60;1.10;;;;;;;;;;4965923;28;20047;-59
2021/05/04 01:25:10;;;;;;;1.40;1.20;;;;;;;;;;4979047;28;20117;-60
2021/05/04 01:27:36;;;;;;;1.40;1.27;;;;;;;;;;4976532;28;20036;-60
2021/05/04 01:30:02;;;;;;;1.20;1.10;;;;;;;;;;4974142;28;20035;-59
2021/05/04 01:32:28;;;;;;;2.30;1.30;;;;;;;;;;4981481;28;20039;-60
2021/05/04 01:34:53;;;;;;;3.95;1.40;;;;;;;;;;4977118;28;20026;-60
2021/05/04 01:37:19;;;;;;;1.48;1.27;;;;;;;;;;4975886;28;20041;-60
2021/05/04 01:39:46;;;;;;;1.58;1.20;;;;;;;;;;4974827;28;20046;-60
2021/05/04 01:42:12;;;;;;;1.63;1.20;;;;;;;;;;4974697;28;20907;-60
2021/05/04 01:44:37;;;;;;;2.17;1.00;;;;;;;;;;4967267;28;20039;-60
2021/05/04 01:47:03;;;;;;;1.42;1.20;;;;;;;;;;4981160;28;20040;-60
2021/05/04 01:49:28;;;;;;;1.55;1.00;;;;;;;;;;4958166;28;20037;-60
2021/05/04 01:51:57;;;;;;;1.35;1.10;;;;;;;;;;4976754;28;20094;-59
2021/05/04 01:54:23;;;;;;;1.30;1.00;;;;;;;;;;4975500;28;20038;-59
2021/05/04 01:56:50;;;;;;;1.38;1.10;;;;;;;;;;4975820;28;20518;-60
2021/05/04 01:59:15;;;;;;;1.75;1.00;;;;;;;;;;4974896;28;20027;-60
2021/05/04 02:01:41;;;;;;;1.23;1.05;;;;;;;;;;4977540;28;20082;-60
2021/05/04 02:04:06;;;;;;;1.63;0.98;;;;;;;;;;4978957;28;20952;-60
2021/05/04 02:06:32;;;;;;;2.20;1.10;;;;;;;;;;4976280;28;20498;-60
2021/05/04 02:08:57;;;;;;;2.78;1.10;;;;;;;;;;4978557;28;20042;-60
2021/05/04 02:11:23;;;;;;;1.33;1.10;;;;;;;;;;4975111;28;20043;-60
2021/05/04 02:13:48;;;;;;;1.73;1.10;;;;;;;;;;4975547;28;20090;-60
2021/05/04 02:16:14;;;;;;;2.80;0.90;;;;;;;;;;4977481;28;20395;-59
2021/05/04 02:18:39;;;;;;;1.58;0.90;;;;;;;;;;4980262;28;20039;-60
2021/05/04 02:21:05;;;;;;;1.60;1.17;;;;;;;;;;4991174;28;20053;-60
2021/05/04 02:23:31;;;;;;;1.17;1.00;;;;;;;;;;4991494;28;20039;-60
2021/05/04 02:25:57;;;;;;;0.82;0.80;;;;;;;;;;4965005;28;20035;-60
2021/05/04 02:28:22;;;;;;;1.20;0.80;;;;;;;;;;4976890;28;20039;-60
2021/05/04 02:30:47;;;;;;;1.63;1.00;;;;;;;;;;4975577;28;20373;-60
2021/05/04 02:33:13;;;;;;;1.45;0.90;;;;;;;;;;4980993;28;20045;-60
2021/05/04 02:35:38;;;;;;;1.20;1.00;;;;;;;;;;4975436;28;20039;-60
2021/05/04 02:38:04;;;;;;;1.60;1.00;;;;;;;;;;4974760;28;20034;-60
2021/05/04 02:40:29;;;;;;;2.00;0.90;;;;;;;;;;4976095;28;20039;-60
2021/05/04 02:42:55;;;;;;;1.75;1.00;;;;;;;;;;4974606;28;20039;-60
2021/05/04 02:45:20;;;;;;;1.30;0.95;;;;;;;;;;4973621;28;20034;-60
2021/05/04 02:47:46;;;;;;;1.98;1.00;;;;;;;;;;4991600;28;20077;-59
2021/05/04 02:50:13;;;;;;;0.98;0.80;;;;;;;;;;4977822;28;20039;-60
2021/05/04 02:52:38;;;;;;;1.42;0.90;;;;;;;;;;4976358;28;20605;-60
2021/05/04 02:55:04;;;;;;;1.67;0.70;;;;;;;;;;4974513;28;20028;-59
2021/05/04 02:57:30;;;;;;;1.98;0.90;;;;;;;;;;4974410;28;20035;-60
2021/05/04 02:59:55;;;;;;;0.88;0.73;;;;;;;;;;4976359;28;20049;-60
2021/05/04 03:02:21;;;;;;;1.40;0.80;;;;;;;;;;4974803;28;20198;-59
2021/05/04 03:04:46;;;;;;;2.70;0.90;;;;;;;;;;4976001;28;20039;-59
2021/05/04 03:07:12;;;;;;;1.67;0.77;;;;;;;;;;4974803;28;20035;-60
2021/05/04 03:09:37;;;;;;;1.67;1.00;;;;;;;;;;4973746;28;20443;-59
2021/05/04 03:12:03;;;;;;;1.35;0.73;;;;;;;;;;4973019;28;20039;-59
2021/05/04 03:14:29;;;;;;;1.17;0.82;;;;;;;;;;4976950;28;20491;-60
2021/05/04 03:16:54;;;;;;;1.55;0.98;;;;;;;;;;4975499;28;20399;-60
2021/05/04 03:19:20;;;;;;;2.22;0.70;;;;;;;;;;4972843;28;20071;-59
2021/05/04 03:21:45;;;;;;;1.65;1.05;;;;;;;;;;4975055;28;20509;-59
2021/05/04 03:24:11;;;;;;;2.33;0.60;;;;;;;;;;4975548;28;20043;-60
2021/05/04 03:26:36;;;;;;;2.40;1.55;;;;;;;;;;4973436;28;20499;-60
2021/05/04 03:29:02;;;;;;;1.00;0.55;;;;;;;;;;4974912;28;20062;-59
2021/05/04 03:31:28;;;;;;;1.48;0.80;;;;;;;;;;4975161;28;20035;-60
2021/05/04 03:33:53;;;;;;;1.10;0.80;;;;;;;;;;4974631;28;20558;-60
2021/05/04 03:36:19;;;;;;;2.35;0.80;;;;;;;;;;4972961;28;20409;-60
2021/05/04 03:38:44;;;;;;;2.15;0.80;;;;;;;;;;4974537;28;20479;-60
2021/05/04 03:41:10;;;;;;;2.03;0.90;;;;;;;;;;4972854;28;20046;-60
2021/05/04 03:43:35;;;;;;;2.70;1.02;;;;;;;;;;4973289;28;20546;-59
2021/05/04 03:46:01;;;;;;;2.25;0.60;;;;;;;;;;4976219;28;20035;-60
2021/05/04 03:48:26;;;;;;;5.20;0.98;;;;;;;;;;4973092;28;20572;-60
2021/05/04 03:50:52;;;;;;;1.17;0.70;;;;;;;;;;4980379;28;20027;-60
2021/05/04 03:53:18;;;;;;;0.70;0.60;;;;;;;;;;4974699;28;20038;-60
2021/05/04 03:55:44;;;;;;;0.60;0.60;;;;;;;;;;4976449;28;20098;-61
2021/05/04 03:58:10;;;;;;;1.75;0.68;;;;;;;;;;4940621;28;20035;-59
2021/05/04 04:00:35;;;;;;;1.20;0.70;;;;;;;;;;4972855;28;20050;-60
2021/05/04 04:03:01;;;;;;;1.02;0.50;;;;;;;;;;4974030;28;20102;-59
2021/05/04 04:05:27;;;;;;;1.02;0.70;;;;;;;;;;4974386;28;20043;-59
2021/05/04 04:07:52;;;;;;;1.25;0.63;;;;;;;;;;4975636;28;20155;-59
2021/05/04 04:10:17;;;;;;;0.77;0.60;;;;;;;;;;4978507;28;20082;-59
2021/05/04 04:12:43;;;;;;;1.20;0.73;;;;;;;;;;4979066;28;20448;-59
2021/05/04 04:15:09;;;;;;;1.00;0.70;;;;;;;;;;4977786;28;20050;-59
2021/05/04 04:17:35;;;;;;;1.40;0.70;;;;;;;;;;4982438;28;20035;-59
2021/05/04 04:20:00;;;;;;;0.88;0.70;;;;;;;;;;4982702;28;20044;-59
2021/05/04 04:22:26;;;;;;;1.00;0.60;;;;;;;;;;4976398;28;20896;-59
2021/05/04 04:24:54;;;;;;;1.13;0.82;;;;;;;;;;4977056;28;20426;-59
2021/05/04 04:27:23;;;;;;;0.75;0.65;;;;;;;;;;4977541;28;20582;-59
2021/05/04 04:29:48;;;;;;;1.65;0.77;;;;;;;;;;4978449;28;20050;-59
2021/05/04 04:32:14;;;;;;;0.75;0.70;;;;;;;;;;4967036;28;20090;-59
2021/05/04 04:34:39;;;;;;;0.77;0.60;;;;;;;;;;4975725;28;20026;-59
2021/05/04 04:37:05;;;;;;;1.15;0.70;;;;;;;;;;4965909;28;20499;-59
2021/05/04 04:39:30;;;;;;;1.35;0.75;;;;;;;;;;4978404;28;20086;-59
2021/05/04 04:41:56;;;;;;;1.60;0.70;;;;;;;;;;4975861;28;20483;-59
2021/05/04 04:44:21;;;;;;;0.50;0.50;;;;;;;;;;4976111;28;20806;-59
2021/05/04 04:46:47;;;;;;;1.02;0.80;;;;;;;;;;4975942;28;20516;-59
2021/05/04 04:49:14;;;;;;;1.55;0.68;;;;;;;;;;4978402;28;20831;-59
2021/05/04 04:51:39;;;;;;;1.02;0.73;;;;;;;;;;4976379;28;20043;-59
2021/05/04 04:54:06;;;;;;;2.17;0.80;;;;;;;;;;4975433;28;20081;-59
2021/05/04 04:56:32;;;;;;;1.13;0.70;;;;;;;;;;4975492;28;20035;-59
2021/05/04 04:58:57;;;;;;;2.13;0.70;;;;;;;;;;4974308;28;20031;-58
2021/05/04 05:01:23;;;;;;;1.70;0.65;;;;;;;;;;4975759;28;20435;-59
2021/05/04 05:03:48;;;;;;;0.93;0.70;;;;;;;;;;4978799;28;20494;-59
2021/05/04 05:06:14;;;;;;;0.80;0.80;;;;;;;;;;4974713;28;20085;-59
2021/05/04 05:08:39;;;;;;;2.13;0.80;;;;;;;;;;4976655;28;20494;-59
2021/05/04 05:11:05;;;;;;;0.95;0.85;;;;;;;;;;4976906;28;20027;-59
2021/05/04 05:13:30;;;;;;;1.17;0.75;;;;;;;;;;4975098;28;20038;-59
2021/05/04 05:15:56;;;;;;;1.83;0.70;;;;;;;;;;4982511;28;20035;-58
2021/05/04 05:18:21;;;;;;;0.60;0.55;;;;;;;;;;4976690;28;20046;-59
2021/05/04 05:20:47;;;;;;;0.70;0.60;;;;;;;;;;4975688;28;20050;-59
2021/05/04 05:23:12;;;;;;;0.75;0.47;;;;;;;;;;4976381;28;20035;-59
2021/05/04 05:25:38;;;;;;;0.50;0.50;;;;;;;;;;4976253;28;20038;-59
2021/05/04 05:28:07;;;;;;;0.50;0.50;;;;;;;;;;4975860;28;20047;-59
2021/05/04 05:30:33;;;;;;;1.00;0.70;;;;;;;;;;4974991;28;20050;-59
2021/05/04 05:32:59;;;;;;;0.60;0.57;;;;;;;;;;4980939;28;20039;-59
2021/05/04 05:35:24;;;;;;;0.80;0.65;;;;;;;;;;4975176;28;20776;-59
2021/05/04 05:37:50;;;;;;;0.85;0.40;;;;;;;;;;4976373;28;20039;-59
2021/05/04 05:40:16;;;;;;;0.82;0.60;;;;;;;;;;4976518;28;20039;-59
2021/05/04 05:42:41;;;;;;;0.50;0.50;;;;;;;;;;4975629;28;20499;-59
2021/05/04 05:45:07;;;;;;;0.65;0.50;;;;;;;;;;4981140;28;20479;-59
2021/05/04 05:47:33;;;;;;;0.70;0.60;;;;;;;;;;4980277;28;20125;-59
2021/05/04 05:49:58;;;;;;;1.48;0.80;;;;;;;;;;4981455;28;20035;-59
2021/05/04 05:52:24;;;;;;;0.80;0.60;;;;;;;;;;4976353;28;20411;-59
2021/05/04 05:54:50;;;;;;;0.82;0.73;;;;;;;;;;4976836;28;20042;-59
2021/05/04 05:57:15;;;;;;;0.95;0.95;;;;;;;;;;4967601;28;20042;-59
2021/05/04 05:59:41;;;;;;;1.10;1.00;;;;;;;;;;4981686;28;20047;-59
2021/05/04 06:02:06;;;;;;;0.65;0.63;;;;;;;;;;4976899;28;20491;-59
2021/05/04 06:04:32;;;;;;;0.82;0.70;;;;;;;;;;4976292;28;20078;-59
2021/05/04 06:06:58;;;;;;;1.38;0.50;;;;;;;;;;4975623;28;20035;-58
2021/05/04 12:26:33;;;;;;;;;;;;;;;;;;1701426;22;20143;-60
2021/05/04 12:28:58;;;;;;;5.97;0.88;;;;;;;;;;4981257;28;19921;-60
2021/05/04 12:31:31;;;;;;;4.03;1.17;;;;;;;;;;4976066;28;20045;-60
2021/05/04 12:33:57;;;;;;;3.45;1.20;;;;;;;;;;4975345;28;20042;-60
2021/05/04 12:47:49;;;;;;;2.25;0.70;;;;;;;;;;4913909;29;20481;-59
2021/05/04 12:50:31;;;;;;;1.92;0.60;;;;;;;;;;4926667;28;20130;-60
2021/05/04 12:52:56;;;;;;;3.13;0.77;;;;;;;;;;4956000;28;20842;-60
2021/05/04 12:55:22;;;;;;;2.17;0.98;;;;;;;;;;4944203;28;20036;-60
2021/05/04 12:58:11;;;;;;;2.17;0.70;;;;;;;;;;4956109;28;20035;-60
2021/05/04 13:00:36;;;;;;;4.68;1.20;;;;;;;;;;4956012;28;20054;-61
2021/05/04 13:03:18;;;;;;;3.60;1.10;;;;;;;;;;4960482;28;20050;-60
2021/05/04 13:05:43;;;;;;;2.90;1.00;;;;;;;;;;4954616;28;20040;-60
2021/05/04 13:08:10;;;;;;;4.28;1.00;;;;;;;;;;4972486;28;20298;-60
2021/05/04 13:18:50;;;;;;;2.67;0.95;;;;;;;;;;4955968;28;20046;-60
2021/05/04 13:31:48;;;;;;;2.33;0.70;;;;;;;;;;4955493;28;20051;-60
2021/05/04 13:34:26;;;;;;;3.88;1.20;;;;;;;;;;4957161;28;20055;-60
2021/05/04 13:36:51;;;;;;;1.70;0.60;;;;;;;;;;4956858;28;20035;-60
2021/05/04 13:47:28;;;;;;;1.90;1.00;;;;;;;;;;4956975;28;20040;-60
2021/05/04 13:47:34;;;;;;;3.72;1.10;;;;;;;;;;4931170;28;20478;-60
2021/05/04 13:50:01;;;;;;;2.42;0.85;;;;;;;;;;4922104;28;20051;-60
2021/05/04 13:52:26;;;;;;;3.03;1.05;;;;;;;;;;4926971;28;20038;-60
2021/05/04 13:54:52;;;;;;;3.17;1.00;;;;;;;;;;4928863;28;20520;-60
2021/05/04 13:57:18;;;;;;;2.97;0.80;;;;;;;;;;4950251;28;20522;-60
2021/05/04 13:59:47;;;;;;;2.83;0.82;;;;;;;;;;4933697;28;20027;-60
2021/05/04 14:02:18;;;;;;;1.95;0.70;;;;;;;;;;4941068;28;20036;-60
2021/05/04 14:05:17;;;;;;;3.05;0.82;;;;;;;;;;4935318;28;20046;-60
2021/05/04 14:17:47;;;;;;;2.05;0.65;;;;;;;;;;4936332;28;20067;-60
2021/05/04 14:26:50;;;;;;;5.20;1.15;;;;;;;;;;4934719;28;20040;-60
2021/05/04 14:29:16;;;;;;;2.70;0.80;;;;;;;;;;4924365;28;20040;-60
2021/05/04 14:31:42;;;;;;;3.70;0.93;;;;;;;;;;4934770;28;20607;-59
2021/05/04 14:34:07;;;;;;;2.75;0.70;;;;;;;;;;4936386;28;20488;-59
2021/05/04 15:00:30;;;;;;;1.38;0.55;;;;;;;;;;4898784;28;20032;-60
2021/05/04 15:02:56;;;;;;;3.20;0.80;;;;;;;;;;4934514;28;20051;-61
2021/05/04 15:05:24;;;;;;;;;;;;;;;;;;4935668;28;20036;-62
2021/05/04 15:07:50;;;;;;;1.98;0.63;;;;;;;;;;4950499;28;19926;-61
2021/05/04 15:10:16;;;;;;;3.30;0.65;;;;;;;;;;4934958;28;20062;-60
2021/05/04 15:12:43;;;;;;;4.10;0.93;;;;;;;;;;4934190;28;20118;-60
2021/05/04 15:15:16;;;;;;;2.67;0.63;;;;;;;;;;4933886;28;20151;-60
2021/05/04 15:22:53;;;;;;;4.72;1.55;;;;;;;;;;4936386;28;20040;-60
2021/05/04 15:25:19;;;;;;;3.90;1.40;;;;;;;;;;4940379;28;20073;-59
2021/05/04 15:27:45;;;;;;;3.22;0.90;;;;;;;;;;4936918;28;20156;-60
2021/05/04 15:30:11;;;;;;;3.17;0.80;;;;;;;;;;4936522;28;20070;-60
2021/05/04 15:32:44;;;;;;;2.42;0.80;;;;;;;;;;4935146;28;20040;-60
2021/05/04 15:35:12;;;;;;;4.03;0.98;;;;;;;;;;4935351;28;20160;-60
2021/05/04 15:37:37;;;;;;;2.47;0.70;;;;;;;;;;4935237;28;20036;-60
2021/05/04 15:40:03;;;;;;;3.22;1.15;;;;;;;;;;4937024;28;20040;-60
2021/05/04 15:42:29;;;;;;;3.70;0.82;;;;;;;;;;4941194;28;20481;-60
2021/05/04 15:44:59;;;;;;;2.83;0.95;;;;;;;;;;4935501;28;20031;-59
2021/05/04 15:50:06;;;;;;;1.92;0.70;;;;;;;;;;4935717;28;20032;-60
2021/05/04 15:52:52;;;;;;;3.03;0.68;;;;;;;;;;4936970;28;20639;-59
2021/05/04 15:55:43;;;;;;;2.20;0.73;;;;;;;;;;4920777;28;20524;-60
2021/05/04 16:06:33;;;;;;;3.15;0.90;;;;;;;;;;4938869;28;20503;-60
2021/05/04 16:11:24;;;;;;;2.47;0.80;;;;;;;;;;4944674;28;20036;-60
2021/05/04 16:13:52;;;;;;;1.58;0.65;;;;;;;;;;4939494;28;20024;-60
2021/05/04 16:16:20;;;;;;;1.67;0.60;;;;;;;;;;4937213;28;20227;-60
2021/05/04 16:18:47;;;;;;;1.20;0.70;;;;;;;;;;4939058;28;20032;-60
2021/05/04 16:31:43;;;;;;;3.72;0.70;;;;;;;;;;4937963;28;20039;-59
2021/05/04 16:34:08;;;;;;;2.47;0.88;;;;;;;;;;4935801;28;20032;-60
2021/05/04 16:36:34;;;;;;;3.50;1.05;;;;;;;;;;4937185;28;20198;-60
2021/05/04 16:39:04;;;;;;;2.30;0.70;;;;;;;;;;4936650;28;20596;-60
2021/05/04 16:41:29;;;;;;;2.45;0.77;;;;;;;;;;4937177;28;20123;-60
2021/05/04 16:43:55;;;;;;;1.67;0.73;;;;;;;;;;4938227;28;20040;-59
2021/05/04 16:46:20;;;;;;;1.95;0.55;;;;;;;;;;4938825;28;20435;-60
2021/05/04 16:48:50;;;;;;;2.65;0.65;;;;;;;;;;4938064;28;20916;-60
2021/05/04 16:51:15;;;;;;;3.28;0.60;;;;;;;;;;4937297;28;20036;-59
2021/05/04 16:53:41;;;;;;;1.25;0.50;;;;;;;;;;4943072;28;20035;-59
2021/05/04 16:56:06;;;;;;;1.95;0.80;;;;;;;;;;4943313;28;20050;-59
2021/05/04 16:58:32;;;;;;;2.05;0.70;;;;;;;;;;4937769;28;20504;-60
2021/05/04 17:01:03;;;;;;;1.98;0.80;;;;;;;;;;4939197;28;21158;-60
2021/05/04 17:03:33;;;;;;;3.57;1.03;;;;;;;;;;4938096;28;21044;-60
2021/05/04 17:06:10;;;;;;;1.05;0.40;;;;;;;;;;4937821;28;20257;-60
2021/05/04 17:08:45;;;;;;;0.80;0.40;;;;;;;;;;4936424;28;20050;-59
2021/05/04 17:11:11;;;;;;;1.55;0.50;;;;;;;;;;4935721;28;20048;-60
2021/05/04 17:13:36;;;;;;;0.85;0.40;;;;;;;;;;4951737;28;20040;-60
2021/05/04 17:16:02;;;;;;;1.05;0.50;;;;;;;;;;4936787;28;20023;-60
2021/05/04 17:18:31;;;;;;;2.38;0.65;;;;;;;;;;4937960;28;20104;-60
2021/05/04 17:20:57;;;;;;;2.08;0.40;;;;;;;;;;4926745;28;20066;-60
2021/05/04 17:23:22;;;;;;;1.55;0.60;;;;;;;;;;4942510;28;20079;-60
2021/05/04 17:25:48;;;;;;;1.50;0.60;;;;;;;;;;4936532;28;20028;-60
2021/05/04 17:28:14;;;;;;;1.38;0.65;;;;;;;;;;4936467;28;20040;-59
2021/05/04 17:30:40;;;;;;;1.52;0.50;;;;;;;;;;4937572;28;20075;-60
2021/05/04 17:33:05;;;;;;;2.47;1.20;;;;;;;;;;4935893;28;20046;-60
2021/05/04 17:35:30;;;;;;;2.05;0.80;;;;;;;;;;4938624;28;20020;-60
2021/05/04 17:38:02;;;;;;;0.75;0.50;;;;;;;;;;4937554;28;20036;-60
2021/05/04 17:40:28;;;;;;;;;;;;;;;;;;4939679;28;20496;-61
2021/05/04 17:42:53;;;;;;;1.08;0.60;;;;;;;;;;4936129;28;19922;-60
2021/05/04 17:45:23;;;;;;;2.10;0.80;;;;;;;;;;4937898;28;20071;-61
2021/05/04 17:47:49;;;;;;;1.52;0.60;;;;;;;;;;4936233;28;20036;-60
2021/05/04 17:50:14;;;;;;;1.55;0.70;;;;;;;;;;4936776;28;20036;-61
2021/05/04 17:52:40;;;;;;;2.13;0.70;;;;;;;;;;4935496;28;20091;-60
2021/05/04 17:55:06;;;;;;;1.13;0.50;;;;;;;;;;4942844;28;20590;-61
2021/05/04 17:57:31;;;;;;;1.63;0.70;;;;;;;;;;4937104;28;20111;-60
2021/05/04 17:59:57;;;;;;;0.90;0.40;;;;;;;;;;4936402;28;20048;-61
2021/05/04 18:02:22;;;;;;;1.77;0.80;;;;;;;;;;4936312;28;20046;-61
2021/05/04 18:04:48;;;;;;;1.67;0.68;;;;;;;;;;4938717;28;20036;-61
2021/05/04 18:07:18;;;;;;;1.42;0.60;;;;;;;;;;4938368;28;20523;-61
2021/05/04 18:09:44;;;;;;;3.22;0.57;;;;;;;;;;4938577;28;20051;-60
2021/05/04 18:12:23;;;;;;;1.35;0.60;;;;;;;;;;4937594;28;20411;-62
2021/05/04 18:15:06;;;;;;;1.48;0.50;;;;;;;;;;4942406;28;20036;-60
2021/05/04 18:23:00;;;;;;;0.68;0.40;;;;;;;;;;4937959;28;20647;-60
2021/05/04 18:25:26;;;;;;;0.90;0.40;;;;;;;;;;4939002;28;20488;-61
2021/05/04 18:27:52;;;;;;;1.98;0.90;;;;;;;;;;4951100;28;20040;-61
2021/05/04 18:30:21;;;;;;;1.42;0.65;;;;;;;;;;4937154;28;20047;-60
2021/05/04 18:32:47;;;;;;;1.88;0.75;;;;;;;;;;4932108;28;20524;-60
2021/05/04 18:35:19;;;;;;;1.25;0.68;;;;;;;;;;4935458;28;20098;-60
2021/05/04 18:40:48;;;;;;;;;;;;;;;;;;4952381;28;20061;-60
2021/05/04 19:07:27;;;;;;;0.90;0.30;;;;;;;;;;4934976;28;20051;-60
2021/05/04 19:10:12;;;;;;;0.40;0.30;;;;;;;;;;4935859;28;20032;-61
2021/05/04 19:29:10;;;;;;;1.30;0.60;;;;;;;;;;4935454;28;20110;-60
2021/05/04 20:14:03;;;;;;;1.02;0.40;;;;;;;;;;4939456;28;20117;-60
2021/05/04 20:16:31;;;;;;;0.75;0.60;;;;;;;;;;4938094;28;20064;-60
2021/05/04 20:18:57;;;;;;;1.17;0.40;;;;;;;;;;4939900;28;20044;-61
2021/05/04 20:21:22;;;;;;;0.30;0.30;;;;;;;;;;4937664;28;20032;-61
2021/05/04 20:23:48;;;;;;;0.75;0.40;;;;;;;;;;4939701;28;20087;-61
2021/05/04 20:26:13;;;;;;;0.30;0.30;;;;;;;;;;4937995;28;20107;-61
2021/05/04 20:28:39;;;;;;;0.38;0.32;;;;;;;;;;4938118;28;20047;-61
2021/05/04 20:31:04;;;;;;;0.80;0.40;;;;;;;;;;4943732;28;20046;-61
2021/05/04 20:33:32;;;;;;;0.45;0.40;;;;;;;;;;4943606;28;20616;-61
2021/05/04 20:35:59;;;;;;;0.50;0.50;;;;;;;;;;4936629;28;20071;-61
2021/05/04 20:38:25;;;;;;;0.32;0.30;;;;;;;;;;4927062;28;20051;-61
2021/05/04 20:40:54;;;;;;;0.55;0.50;;;;;;;;;;4937636;28;20074;-61
2021/05/04 20:43:19;;;;;;;0.77;0.50;;;;;;;;;;4938160;28;20064;-61
2021/05/04 20:45:49;;;;;;;0.30;0.30;;;;;;;;;;4938327;28;20052;-61
2021/05/04 20:48:15;;;;;;;0.75;0.40;;;;;;;;;;4939432;28;20031;-61
2021/05/04 20:50:40;;;;;;;0.63;0.30;;;;;;;;;;4952637;28;20457;-61
2021/05/04 20:53:06;;;;;;;0.57;0.30;;;;;;;;;;4939633;28;20099;-61
2021/05/04 20:55:32;;;;;;;1.55;0.90;;;;;;;;;;4937784;28;20043;-61
2021/05/04 20:57:58;;;;;;;2.25;1.15;;;;;;;;;;4952277;28;20071;-60
2021/05/04 21:00:24;;;;;;;1.65;1.00;;;;;;;;;;4936970;28;20051;-61
2021/05/04 21:02:49;;;;;;;1.60;0.90;;;;;;;;;;4938437;28;20039;-61
2021/05/04 21:05:15;;;;;;;1.17;0.80;;;;;;;;;;4942584;28;20514;-61
2021/05/04 21:07:43;;;;;;;0.50;0.50;;;;;;;;;;4935976;28;20039;-60
2021/05/04 21:12:46;;;;;;;0.43;0.43;;;;;;;;;;4938838;28;20915;-61
2021/05/04 21:15:16;;;;;;;1.33;0.85;;;;;;;;;;4937120;28;20043;-60
2021/05/04 21:17:46;;;;;;;1.10;0.60;;;;;;;;;;4937286;28;20118;-61
2021/05/04 21:20:25;;;;;;;0.52;0.40;;;;;;;;;;4937948;28;20066;-61
2021/05/04 21:27:50;;;;;;;0.40;0.40;;;;;;;;;;4936025;28;20031;-60
2021/05/04 21:30:16;;;;;;;0.43;0.35;;;;;;;;;;4938567;28;20211;-61
2021/05/04 21:32:42;;;;;;;0.38;0.32;;;;;;;;;;4936184;28;20040;-61
2021/05/04 21:35:10;;;;;;;0.95;0.30;;;;;;;;;;4919792;28;20552;-61
2021/05/04 21:37:36;;;;;;;0.90;0.50;;;;;;;;;;4937360;28;20088;-60
2021/05/04 21:40:03;;;;;;;1.08;0.50;;;;;;;;;;4942711;28;20044;-60
2021/05/04 21:42:28;;;;;;;0.47;0.30;;;;;;;;;;4937639;28;20033;-61
2021/05/04 21:44:54;;;;;;;1.40;0.50;;;;;;;;;;4935370;28;20040;-61
2021/05/04 21:47:20;;;;;;;0.80;0.50;;;;;;;;;;4937267;28;20039;-61
2021/05/04 21:49:46;;;;;;;1.23;0.50;;;;;;;;;;4925571;28;20667;-61
2021/05/04 21:52:11;;;;;;;1.13;0.50;;;;;;;;;;4921032;28;20602;-61
2021/05/04 21:54:39;;;;;;;1.13;0.50;;;;;;;;;;4942524;28;20036;-61
2021/05/04 21:57:05;;;;;;;0.93;0.50;;;;;;;;;;4937676;28;20036;-60
2021/05/04 21:59:30;;;;;;;0.75;0.40;;;;;;;;;;4935702;28;20040;-61
2021/05/04 22:01:56;;;;;;;0.68;0.45;;;;;;;;;;4942164;28;20095;-61
2021/05/04 22:04:21;;;;;;;0.95;0.40;;;;;;;;;;4926571;28;20067;-60
2021/05/04 22:06:47;;;;;;;0.40;0.40;;;;;;;;;;4938009;28;20460;-60
2021/05/04 22:09:13;;;;;;;1.30;0.57;;;;;;;;;;4937807;28;20036;-60
2021/05/04 22:11:38;;;;;;;0.80;0.30;;;;;;;;;;4934986;28;20146;-60
2021/05/04 22:14:15;;;;;;;1.00;0.50;;;;;;;;;;4937303;28;20034;-60
2021/05/04 22:35:06;;;;;;;1.17;0.50;;;;;;;;;;4938063;28;20503;-60
2021/05/04 22:37:38;;;;;;;1.52;0.50;;;;;;;;;;4934097;28;20058;-60
2021/05/04 22:40:13;;;;;;;0.38;0.38;;;;;;;;;;4936159;28;20035;-61
2021/05/04 22:42:48;;;;;;;0.38;0.35;;;;;;;;;;4936049;28;20067;-60
2021/05/04 23:17:38;;;;;;;1.17;0.55;;;;;;;;;;4940811;28;20119;-60
2021/05/04 23:20:08;;;;;;;0.57;0.40;;;;;;;;;;4935317;28;20500;-61
2021/05/04 23:22:33;;;;;;;1.95;0.60;;;;;;;;;;4909097;28;20171;-60
2021/05/04 23:24:58;;;;;;;0.98;0.50;;;;;;;;;;4935696;28;20467;-60
2021/05/04 23:27:24;;;;;;;1.30;0.65;;;;;;;;;;4935366;28;20050;-60
2021/05/04 23:29:49;;;;;;;0.95;0.43;;;;;;;;;;4934538;28;20028;-60
2021/05/04 23:32:15;;;;;;;2.05;0.57;;;;;;;;;;4934480;28;20510;-60
2021/05/04 23:34:40;;;;;;;0.88;0.43;;;;;;;;;;4935606;28;20046;-60
2021/05/04 23:37:06;;;;;;;1.52;0.55;;;;;;;;;;4941322;28;20099;-60
2021/05/04 23:39:31;;;;;;;1.58;0.63;;;;;;;;;;4935762;28;20043;-60
2021/05/04 23:41:57;;;;;;;1.30;0.60;;;;;;;;;;4941311;28;20043;-60
2021/05/04 23:44:22;;;;;;;1.50;0.68;;;;;;;;;;4936880;28;20040;-60
2021/05/04 23:46:48;;;;;;;1.48;0.77;;;;;;;;;;4941351;28;20035;-60
2021/05/04 23:49:13;;;;;;;1.25;0.60;;;;;;;;;;4936887;28;20480;-60
2021/05/04 23:51:39;;;;;;;1.23;0.60;;;;;;;;;;4936250;28;20617;-60
2021/05/04 23:54:05;;;;;;;1.27;0.52;;;;;;;;;;4937030;28;20040;-60
2021/05/04 23:56:30;;;;;;;1.10;0.60;;;;;;;;;;4934927;28;20540;-60
2021/05/04 23:58:56;;;;;;;2.33;0.80;;;;;;;;;;4940744;28;20028;-59
